createdAt,value
2023-05-21T00:04:44.130Z,995.57
2023-05-21T00:09:48.277Z,995.56
2023-05-21T00:14:52.423Z,995.54
2023-05-21T00:19:56.585Z,995.60
2023-05-21T00:25:00.802Z,995.59
2023-05-21T00:30:03.067Z,995.63
2023-05-21T00:35:07.168Z,995.64
2023-05-21T00:40:11.358Z,995.68
2023-05-21T00:45:15.526Z,995.69
2023-05-21T00:50:19.690Z,995.64
2023-05-21T00:55:23.844Z,995.79
2023-05-21T01:00:28.024Z,995.71
2023-05-21T01:05:32.176Z,995.75
2023-05-21T01:10:36.304Z,995.83
2023-05-21T01:15:40.462Z,995.78
2023-05-21T01:20:44.662Z,995.69
2023-05-21T01:25:48.805Z,995.69
2023-05-21T01:30:52.967Z,995.62
2023-05-21T01:35:57.150Z,995.60
2023-05-21T01:41:01.250Z,995.53
2023-05-21T01:46:05.446Z,995.46
2023-05-21T01:51:09.594Z,995.33
2023-05-21T01:56:13.771Z,995.38
2023-05-21T02:01:17.913Z,995.33
2023-05-21T02:06:22.109Z,995.22
2023-05-21T02:11:26.227Z,995.17
2023-05-21T02:16:30.450Z,995.21
2023-05-21T02:21:34.571Z,995.29
2023-05-21T02:26:38.712Z,995.22
2023-05-21T02:31:42.908Z,995.24
2023-05-21T02:36:47.043Z,995.11
2023-05-21T02:41:51.208Z,995.09
2023-05-21T02:46:55.391Z,995.09
2023-05-21T02:51:59.522Z,995.13
2023-05-21T02:57:03.706Z,995.08
2023-05-21T03:02:07.867Z,995.10
2023-05-21T03:07:12.044Z,995.11
2023-05-21T03:12:16.214Z,994.98
2023-05-21T03:17:20.361Z,994.88
2023-05-21T03:22:24.494Z,994.79
2023-05-21T03:27:28.706Z,994.79
2023-05-21T03:32:32.854Z,994.70
2023-05-21T03:37:37.041Z,994.64
2023-05-21T03:42:41.177Z,994.53
2023-05-21T03:47:45.360Z,994.48
2023-05-21T03:52:49.491Z,994.36
2023-05-21T03:57:53.656Z,994.38
2023-05-21T04:02:57.902Z,994.35
2023-05-21T04:08:01.967Z,994.31
2023-05-21T04:13:06.099Z,994.21
2023-05-21T04:18:10.273Z,994.06
2023-05-21T04:23:14.419Z,994.05
2023-05-21T04:28:18.582Z,993.97
2023-05-21T04:33:22.792Z,993.99
2023-05-21T04:38:26.901Z,993.94
2023-05-21T04:43:31.076Z,993.86
2023-05-21T04:48:35.257Z,993.79
2023-05-21T04:53:39.403Z,993.78
2023-05-21T04:58:43.564Z,993.59
2023-05-21T05:03:47.796Z,993.64
2023-05-21T05:08:51.926Z,993.55
2023-05-21T05:13:56.080Z,993.38
2023-05-21T05:19:00.275Z,993.34
2023-05-21T05:24:04.357Z,993.34
2023-05-21T05:29:08.497Z,993.24
2023-05-21T05:34:12.679Z,993.33
2023-05-21T05:39:16.896Z,993.31
2023-05-21T05:44:21.014Z,993.37
2023-05-21T05:49:25.192Z,993.51
2023-05-21T05:54:29.335Z,993.59
2023-05-21T05:59:31.626Z,993.77
2023-05-21T06:04:35.762Z,993.93
2023-05-21T06:09:39.917Z,994.22
2023-05-21T06:14:45.234Z,994.50
2023-05-21T06:19:48.243Z,994.75
2023-05-21T06:24:52.420Z,995.02
2023-05-21T06:29:56.579Z,995.22
2023-05-21T06:35:00.713Z,995.56
2023-05-21T06:40:04.895Z,995.64
2023-05-21T06:45:09.071Z,995.65
2023-05-21T06:50:13.249Z,995.67
2023-05-21T06:55:17.378Z,995.86
2023-05-21T07:00:21.543Z,995.89
2023-05-21T07:05:25.728Z,996.05
2023-05-21T07:10:29.820Z,996.05
2023-05-21T07:15:34.064Z,996.02
2023-05-21T07:20:38.155Z,996.08
2023-05-21T07:25:42.351Z,996.03
2023-05-21T07:30:46.511Z,996.16
2023-05-21T07:35:50.662Z,996.27
2023-05-21T07:40:54.822Z,996.32
2023-05-21T07:45:58.980Z,996.40
2023-05-21T07:51:03.151Z,996.45
2023-05-21T07:56:07.301Z,996.38
2023-05-21T08:01:11.448Z,996.24
2023-05-21T08:06:15.646Z,996.50
2023-05-21T08:11:19.797Z,996.60
2023-05-21T08:16:24.054Z,996.61
2023-05-21T08:21:28.122Z,996.78
2023-05-21T08:26:32.278Z,996.84
2023-05-21T08:31:36.452Z,996.77
2023-05-21T08:36:40.559Z,996.91
2023-05-21T08:41:44.746Z,996.89
2023-05-21T08:46:48.900Z,996.96
2023-05-21T08:51:53.073Z,996.97
2023-05-21T08:56:57.225Z,996.86
2023-05-21T09:02:01.401Z,996.82
2023-05-21T09:07:05.505Z,996.91
2023-05-21T09:12:09.723Z,996.80
2023-05-21T09:17:13.860Z,996.78
2023-05-21T09:22:18.063Z,996.83
2023-05-21T09:27:22.185Z,996.86
2023-05-21T09:32:27.384Z,996.90
2023-05-21T09:37:30.497Z,996.78
2023-05-21T09:42:34.625Z,996.75
2023-05-21T09:47:38.827Z,996.68
2023-05-21T09:52:43.002Z,996.69
2023-05-21T09:57:48.679Z,996.72
2023-05-21T10:02:51.310Z,996.75
2023-05-21T10:07:55.444Z,996.66
2023-05-21T10:12:59.583Z,996.69
2023-05-21T10:18:05.009Z,996.64
2023-05-21T10:23:18.218Z,996.59
2023-05-21T10:28:12.056Z,996.61
2023-05-21T10:33:16.290Z,996.61
2023-05-21T10:38:20.434Z,996.60
2023-05-21T10:43:24.604Z,996.45
2023-05-21T10:48:28.710Z,996.36
2023-05-21T10:53:32.908Z,996.39
2023-05-21T10:58:37.071Z,996.37
2023-05-21T11:03:41.377Z,996.32
2023-05-21T11:08:45.416Z,996.23
2023-05-21T11:13:49.777Z,996.20
2023-05-21T11:18:53.684Z,996.15
2023-05-21T11:23:57.869Z,996.09
2023-05-21T11:29:00.110Z,996.09
2023-05-21T11:34:04.210Z,996.17
2023-05-21T11:39:08.407Z,996.08
2023-05-21T11:44:12.587Z,995.87
2023-05-21T11:49:16.716Z,995.84
2023-05-21T11:54:20.898Z,995.84
2023-05-21T11:59:23.177Z,995.83
2023-05-21T12:04:27.332Z,995.71
2023-05-21T12:09:31.854Z,995.72
2023-05-21T12:14:35.624Z,995.67
2023-05-21T12:19:39.765Z,995.66
2023-05-21T12:24:43.994Z,995.61
2023-05-21T12:29:48.081Z,995.65
2023-05-21T12:34:52.253Z,995.59
2023-05-21T12:39:56.394Z,995.57
2023-05-21T12:45:00.622Z,995.52
2023-05-21T12:50:04.768Z,995.43
2023-05-21T12:55:09.731Z,995.15
2023-05-21T13:00:13.040Z,995.22
2023-05-21T13:05:17.214Z,995.06
2023-05-21T13:10:21.433Z,995.15
2023-05-21T13:15:25.582Z,994.99
2023-05-21T13:20:29.743Z,995.01
2023-05-21T13:25:33.866Z,994.97
2023-05-21T13:30:38.222Z,994.83
2023-05-21T13:35:42.182Z,994.54
2023-05-21T13:40:46.340Z,994.61
2023-05-21T13:45:50.491Z,994.65
2023-05-21T13:50:54.643Z,994.53
2023-05-21T13:55:58.831Z,994.50
2023-05-21T14:01:03.008Z,994.16
2023-05-21T14:06:07.154Z,993.92
2023-05-21T14:11:11.294Z,993.67
2023-05-21T14:16:15.488Z,993.68
2023-05-21T14:21:19.592Z,993.94
2023-05-21T14:26:23.768Z,993.51
2023-05-21T14:31:27.987Z,993.49
2023-05-21T14:36:32.059Z,993.41
2023-05-21T14:41:36.240Z,993.42
2023-05-21T14:46:40.506Z,993.30
2023-05-21T14:51:44.510Z,993.34
2023-05-21T14:56:48.691Z,993.44
2023-05-21T15:01:52.885Z,993.60
2023-05-21T15:06:57.064Z,993.75
2023-05-21T15:12:01.153Z,994.05
2023-05-21T15:17:05.339Z,994.23
2023-05-21T15:22:09.480Z,994.68
2023-05-21T15:27:13.737Z,995.70
2023-05-21T15:37:21.982Z,997.61
2023-05-21T15:42:26.128Z,1001.10
2023-05-21T15:47:30.381Z,1002.27
2023-05-21T15:52:34.476Z,1002.61
2023-05-21T15:57:38.635Z,1002.97
2023-05-21T16:02:42.802Z,1002.98
2023-05-21T16:07:47.006Z,1002.99
2023-05-21T16:12:51.106Z,1003.16
2023-05-21T16:17:55.259Z,1003.26
2023-05-21T16:22:59.435Z,1003.19
2023-05-21T16:28:03.578Z,1003.22
2023-05-21T16:33:07.908Z,1003.02
2023-05-21T16:38:11.861Z,1002.93
2023-05-21T16:43:16.055Z,1002.72
2023-05-21T16:48:20.213Z,1002.51
2023-05-21T16:53:24.346Z,1001.62
2023-05-21T16:58:28.504Z,1000.62
2023-05-21T17:03:32.803Z,999.11
2023-05-21T17:08:36.846Z,997.68
2023-05-21T17:13:41.040Z,995.99
2023-05-21T17:18:45.159Z,994.27
2023-05-21T17:23:49.301Z,992.55
2023-05-21T17:28:51.575Z,990.24
2023-05-21T17:33:55.732Z,989.57
2023-05-21T17:38:59.894Z,989.77
2023-05-21T17:44:04.106Z,990.36
2023-05-21T17:49:09.270Z,991.31
2023-05-21T17:54:12.427Z,992.23
2023-05-21T17:59:16.536Z,992.61
2023-05-21T18:04:20.802Z,992.56
2023-05-21T18:09:24.864Z,992.76
2023-05-21T18:14:29.028Z,993.01
2023-05-21T18:19:33.252Z,992.99
2023-05-21T18:24:37.285Z,992.94
2023-05-21T18:29:41.463Z,992.95
2023-05-21T18:34:45.724Z,993.17
2023-05-21T18:39:49.811Z,993.21
2023-05-21T18:44:53.947Z,993.36
2023-05-21T18:49:58.127Z,993.50
2023-05-21T18:55:02.319Z,993.63
2023-05-21T19:00:06.420Z,993.64
2023-05-21T19:05:10.600Z,993.69
2023-05-21T19:10:14.756Z,993.65
2023-05-21T19:15:18.978Z,993.77
2023-05-21T19:20:23.051Z,993.64
2023-05-21T19:25:27.229Z,993.55
2023-05-21T19:30:31.368Z,993.55
2023-05-21T19:35:35.598Z,993.53
2023-05-21T19:40:39.728Z,993.59
2023-05-21T19:45:43.959Z,993.71
2023-05-21T19:50:48.029Z,993.82
2023-05-21T19:55:52.250Z,993.56
2023-05-21T20:00:56.348Z,993.42
2023-05-21T20:06:00.495Z,993.12
2023-05-21T20:11:04.664Z,992.99
2023-05-21T20:16:08.887Z,993.33
2023-05-21T20:21:12.985Z,993.65
2023-05-21T20:26:17.130Z,993.88
2023-05-21T20:31:21.315Z,993.86
2023-05-21T20:36:25.867Z,994.01
2023-05-21T20:41:29.671Z,994.06
2023-05-21T20:46:33.872Z,993.90
2023-05-21T20:51:37.925Z,993.72
2023-05-21T20:56:43.032Z,993.86
2023-05-21T21:01:46.260Z,993.72
2023-05-21T21:06:50.404Z,993.63
2023-05-21T21:11:54.518Z,993.53
2023-05-21T21:16:58.786Z,993.58
2023-05-21T21:22:02.899Z,993.60
2023-05-21T21:27:07.046Z,993.48
2023-05-21T21:32:11.191Z,993.34
2023-05-21T21:37:16.367Z,993.03
2023-05-21T21:42:19.533Z,992.76
2023-05-21T21:52:27.819Z,992.08
2023-05-21T21:57:31.986Z,991.64
2023-05-21T22:02:36.209Z,991.47
2023-05-21T22:07:40.356Z,991.05
2023-05-21T22:12:44.592Z,991.04
2023-05-21T22:17:48.718Z,991.06
2023-05-21T22:22:54.774Z,991.03
2023-05-21T22:27:56.922Z,991.03
2023-05-21T22:33:01.138Z,990.84
2023-05-21T22:38:05.235Z,990.95
2023-05-21T22:43:09.471Z,990.88
2023-05-21T22:48:13.576Z,990.84
2023-05-21T22:53:17.798Z,990.87
2023-05-21T22:58:20.045Z,990.89
2023-05-21T23:03:24.196Z,990.95
2023-05-21T23:08:28.357Z,990.78
2023-05-21T23:13:32.506Z,990.77
2023-05-21T23:18:36.630Z,990.63
2023-05-21T23:23:40.832Z,990.49
2023-05-21T23:28:45.005Z,990.37
2023-05-21T23:33:49.150Z,990.42
2023-05-21T23:38:53.332Z,990.28
2023-05-21T23:43:57.511Z,990.18
2023-05-21T23:49:01.627Z,990.06
2023-05-21T23:54:05.762Z,989.91
2023-05-21T23:59:09.937Z,989.75
